Time;durP1;ratioP1;P1;durP2;ratioP2;P2;SDS_P1;SDS_P2;PMS_P1;PMS_P2;Temp;Humidity;BMP_temperature;BMP_pressure;BME280_temperature;BME280_humidity;BME280_pressure;Samples;Min_cycle;Max_cycle;Signal;HPM_P1;HPM_P2
2022/02/09 00:01:26;;;;;;;9.70;6.63;;;9.70;99.90;;;;;;5077313;28;20076;-91
2022/02/09 00:04:16;;;;;;;9.98;6.38;;;9.70;99.90;;;;;;5092795;28;20025;-91
2022/02/09 00:07:04;;;;;;;9.85;6.32;;;9.70;99.90;;;;;;5078662;28;20028;-92
2022/02/09 00:09:30;;;;;;;6.55;5.45;;;9.70;99.90;;;;;;5084292;28;20025;-92
2022/02/09 00:14:42;;;;;;;8.82;4.88;;;9.70;99.90;;;;;;5095935;28;20036;-89
2022/02/09 00:25:20;;;;;;;7.28;5.18;;;9.70;99.90;;;;;;5104764;28;20052;-91
2022/02/09 00:28:06;;;;;;;8.25;4.82;;;9.70;99.90;;;;;;5108187;28;20039;-90
2022/02/09 00:31:15;;;;;;;9.52;4.85;;;9.70;99.90;;;;;;5108144;28;20024;-91
2022/02/09 00:39:18;;;;;;;8.70;5.85;;;9.70;99.90;;;;;;5084338;28;20036;-90
2022/02/09 01:38:38;;;;;;;5.97;4.28;;;9.80;99.90;;;;;;5079131;28;20110;-92
2022/02/09 01:57:14;;;;;;;9.30;7.10;;;9.70;99.90;;;;;;5094915;28;20089;-92
2022/02/09 01:59:42;;;;;;;9.48;7.20;;;9.70;99.90;;;;;;5095651;28;20051;-91
2022/02/09 02:02:08;;;;;;;8.70;7.80;;;9.70;99.90;;;;;;5093875;28;20473;-91
2022/02/09 02:04:34;;;;;;;10.60;7.57;;;9.70;99.90;;;;;;5094044;28;20070;-91
2022/02/09 02:07:05;;;;;;;10.27;8.15;;;9.70;99.90;;;;;;5095738;28;20017;-91
2022/02/09 02:09:35;;;;;;;8.98;7.25;;;9.70;99.90;;;;;;5095663;28;20110;-91
2022/02/09 02:12:09;;;;;;;8.93;7.68;;;9.70;99.90;;;;;;5097754;28;20518;-92
2022/02/09 02:14:44;;;;;;;11.20;7.95;;;9.70;99.90;;;;;;5097634;28;20036;-93
2022/02/09 02:19:44;;;;;;;10.13;7.97;;;9.60;99.90;;;;;;5104190;28;20036;-92
2022/02/09 02:28:29;;;;;;;9.73;8.07;;;9.60;99.90;;;;;;5039908;28;20041;-90
2022/02/09 02:31:10;;;;;;;9.75;7.55;;;9.60;99.90;;;;;;5096092;28;20043;-90
2022/02/09 02:34:09;;;;;;;8.80;7.30;;;9.60;99.90;;;;;;5103567;28;20044;-87
2022/02/09 02:47:31;;;;;;;10.10;8.63;;;9.50;99.90;;;;;;5098366;28;20043;-90
2022/02/09 02:58:52;;;;;;;8.45;7.53;;;9.50;99.90;;;;;;5105942;28;20039;-89
2022/02/09 03:17:16;;;;;;;7.63;6.57;;;9.50;99.90;;;;;;5110150;28;20332;-86
2022/02/09 03:20:09;;;;;;;7.60;6.57;;;9.50;99.90;;;;;;5107878;28;20110;-88
2022/02/09 03:44:21;;;;;;;9.38;7.47;;;9.50;99.90;;;;;;5098286;28;20043;-92
2022/02/09 03:49:52;;;;;;;8.40;7.43;;;9.40;99.90;;;;;;5097328;28;20046;-93
2022/02/09 03:55:09;;;;;;;12.35;8.95;;;9.40;99.90;;;;;;5097474;28;20036;-92
2022/02/09 03:57:45;;;;;;;10.07;8.27;;;9.30;99.90;;;;;;5097845;28;20031;-94
2022/02/09 04:00:23;;;;;;;10.63;9.13;;;9.40;99.90;;;;;;5099637;28;20047;-92
2022/02/09 04:02:57;;;;;;;12.32;10.05;;;9.40;99.90;;;;;;5101113;28;20024;-88
2022/02/09 04:05:23;;;;;;;12.23;10.00;;;9.30;99.90;;;;;;5101893;28;20412;-89
2022/02/09 04:07:48;;;;;;;12.07;9.55;;;9.30;99.90;;;;;;5098403;28;20024;-92
2022/02/09 04:10:20;;;;;;;11.45;9.85;;;9.30;99.90;;;;;;5100001;28;20016;-90
2022/02/09 04:16:02;;;;;;;12.93;10.30;;;9.20;99.90;;;;;;5061078;28;20020;-90
2022/02/09 04:50:12;;;;;;;16.58;13.93;;;8.90;99.90;;;;;;5096403;28;20040;-91
2022/02/09 04:53:02;;;;;;;14.15;12.32;;;8.90;99.90;;;;;;5096790;28;20028;-90
2022/02/09 04:58:26;;;;;;;16.15;13.55;;;8.80;99.90;;;;;;5100185;28;20028;-91
2022/02/09 05:01:31;;;;;;;15.88;12.75;;;8.70;99.90;;;;;;5101125;28;20020;-90
2022/02/09 05:22:47;;;;;;;19.88;15.45;;;8.80;99.90;;;;;;5096518;28;20028;-90
2022/02/09 05:25:39;;;;;;;19.52;16.77;;;8.70;99.90;;;;;;5093659;28;20024;-91
2022/02/09 05:30:37;;;;;;;18.77;16.70;;;8.70;99.90;;;;;;5095150;28;20462;-92
2022/02/09 05:33:04;;;;;;;19.13;16.80;;;8.70;99.90;;;;;;5093161;28;20051;-92
2022/02/09 05:35:29;;;;;;;20.15;17.63;;;8.70;99.90;;;;;;5093253;28;20431;-93
2022/02/09 05:37:56;;;;;;;22.45;20.05;;;8.70;99.90;;;;;;5093262;28;20020;-94
2022/02/09 05:40:22;;;;;;;22.35;19.48;;;8.70;99.90;;;;;;5093046;28;20116;-93
2022/02/09 05:42:49;;;;;;;25.35;20.88;;;8.70;99.90;;;;;;5092343;28;20048;-93
2022/02/09 05:45:17;;;;;;;23.63;20.65;;;8.70;99.90;;;;;;5073631;28;20127;-92
2022/02/09 05:57:50;;;;;;;20.77;18.02;;;8.70;99.90;;;;;;5074761;28;20128;-90
2022/02/09 06:00:16;;;;;;;20.65;18.45;;;8.70;99.90;;;;;;5075901;28;20299;-92
2022/02/09 06:02:43;;;;;;;22.52;18.48;;;8.70;99.90;;;;;;5083107;28;20036;-90
2022/02/09 06:05:12;;;;;;;20.50;18.30;;;8.70;99.90;;;;;;5073479;28;20092;-91
2022/02/09 06:07:38;;;;;;;20.88;18.58;;;8.70;99.90;;;;;;5072414;28;20124;-90
2022/02/09 06:10:12;;;;;;;22.35;19.40;;;8.70;99.90;;;;;;5081818;28;20020;-92
2022/02/09 06:12:47;;;;;;;24.15;19.52;;;8.80;99.90;;;;;;5092895;28;20148;-90
2022/02/09 06:20:32;;;;;;;19.52;17.17;;;8.70;99.90;;;;;;5090862;28;20505;-90
2022/02/09 06:22:57;;;;;;;20.80;18.27;;;8.70;99.90;;;;;;5073108;28;20028;-89
2022/02/09 06:25:23;;;;;;;18.70;16.63;;;8.70;99.90;;;;;;5084707;28;20039;-89
2022/02/09 06:27:50;;;;;;;19.27;16.88;;;8.70;99.90;;;;;;5093554;28;20021;-89
2022/02/09 06:30:16;;;;;;;18.80;16.80;;;8.70;99.90;;;;;;5077564;28;20029;-89
2022/02/09 06:32:42;;;;;;;18.75;15.38;;;8.70;99.90;;;;;;5072167;28;20041;-89
2022/02/09 06:35:08;;;;;;;17.63;15.63;;;8.70;99.90;;;;;;5084843;28;20091;-87
2022/02/09 06:37:41;;;;;;;17.27;15.25;;;8.70;99.90;;;;;;5094044;28;20096;-89
2022/02/09 06:40:07;;;;;;;18.42;16.13;;;8.60;99.90;;;;;;5090025;28;20078;-89
2022/02/09 06:42:34;;;;;;;16.70;14.55;;;8.60;99.90;;;;;;5074618;28;20367;-89
2022/02/09 06:45:08;;;;;;;18.83;15.00;;;8.60;99.90;;;;;;5073803;28;20025;-89
2022/02/09 06:47:36;;;;;;;19.08;16.20;;;8.50;99.90;;;;;;5077415;28;20107;-89
2022/02/09 06:50:07;;;;;;;22.80;16.63;;;8.50;99.90;;;;;;5077620;28;20058;-89
2022/02/09 06:52:34;;;;;;;18.40;16.40;;;8.50;99.90;;;;;;5076081;28;20037;-90
2022/02/09 06:57:57;;;;;;;18.20;16.20;;;8.50;99.90;;;;;;5089146;28;20028;-90
2022/02/09 07:00:22;;;;;;;17.00;15.02;;;8.60;99.90;;;;;;5105139;28;20081;-88
2022/02/09 07:02:48;;;;;;;18.17;16.10;;;8.60;99.90;;;;;;5117422;28;20021;-87
2022/02/09 07:05:15;;;;;;;17.90;15.80;;;8.60;99.90;;;;;;5106268;28;20004;-89
2022/02/09 07:07:41;;;;;;;18.20;15.93;;;8.60;99.90;;;;;;5097978;28;20425;-89
2022/02/09 07:10:08;;;;;;;18.63;15.98;;;8.60;99.90;;;;;;5114539;28;20104;-89
2022/02/09 07:12:37;;;;;;;18.50;16.35;;;8.70;99.90;;;;;;5103351;28;20032;-89
2022/02/09 07:15:09;;;;;;;16.88;15.05;;;8.70;99.90;;;;;;5108751;28;20076;-90
2022/02/09 07:17:35;;;;;;;16.10;14.13;;;8.60;99.90;;;;;;5090631;28;20343;-89
2022/02/09 07:20:23;;;;;;;18.17;15.85;;;8.70;99.90;;;;;;5110961;28;20031;-88
2022/02/09 07:22:52;;;;;;;16.35;14.32;;;8.60;99.90;;;;;;5103840;28;20039;-89
2022/02/09 07:25:19;;;;;;;16.15;14.43;;;8.60;99.90;;;;;;5107965;28;20049;-90
2022/02/09 07:27:52;;;;;;;17.55;14.63;;;8.60;99.90;;;;;;5100558;28;20052;-90
2022/02/09 07:30:26;;;;;;;17.00;14.48;;;8.60;99.90;;;;;;5097480;28;20025;-91
2022/02/09 07:32:52;;;;;;;17.25;14.60;;;8.60;99.90;;;;;;5089442;28;20131;-91
2022/02/09 07:35:18;;;;;;;14.73;13.18;;;8.60;99.90;;;;;;5097328;28;20050;-91
2022/02/09 07:37:44;;;;;;;15.52;13.75;;;8.60;99.90;;;;;;5097869;28;20028;-90
2022/02/09 07:40:11;;;;;;;15.35;13.75;;;8.60;99.90;;;;;;5078255;28;20028;-91
2022/02/09 07:42:52;;;;;;;14.65;12.65;;;8.60;99.90;;;;;;5077752;28;20030;-90
2022/02/09 07:46:25;;;;;;;14.80;13.00;;;8.60;99.90;;;;;;5098752;28;20020;-89
2022/02/09 07:48:26;;;;;;;18.02;14.43;;;8.60;99.90;;;;;;5083912;28;20040;-88
2022/02/09 07:51:39;;;;;;;15.38;13.77;;;8.60;99.90;;;;;;5077548;28;20081;-91
2022/02/09 07:53:58;;;;;;;14.23;12.35;;;8.60;99.90;;;;;;5096635;28;20032;-91
2022/02/09 07:56:24;;;;;;;;;;;8.60;99.90;;;;;;5106822;28;20025;-90
2022/02/09 07:58:50;;;;;;;18.65;14.90;;;8.50;99.90;;;;;;5089127;28;19999;-92
2022/02/09 08:01:15;;;;;;;16.83;13.75;;;8.50;99.90;;;;;;5084644;28;20028;-91
2022/02/09 08:03:41;;;;;;;18.10;15.73;;;8.50;99.90;;;;;;5104838;28;20028;-89
2022/02/09 08:06:11;;;;;;;18.45;15.82;;;8.40;99.90;;;;;;5083625;28;20040;-90
2022/02/09 08:08:40;;;;;;;20.10;17.10;;;8.40;99.90;;;;;;5080359;28;20029;-90
2022/02/09 08:11:18;;;;;;;17.67;15.65;;;8.30;99.90;;;;;;5094429;28;20067;-90
2022/02/09 08:27:19;;;;;;;16.77;14.63;;;8.30;99.90;;;;;;5108514;28;20035;-90
2022/02/09 08:30:02;;;;;;;20.63;16.15;;;8.30;99.90;;;;;;5104930;28;20107;-90
2022/02/09 08:34:54;;;;;;;25.00;19.65;;;8.30;99.90;;;;;;5079985;28;20279;-90
2022/02/09 08:37:20;;;;;;;21.15;17.15;;;8.30;99.90;;;;;;5075703;28;20466;-89
2022/02/09 08:39:48;;;;;;;23.17;19.15;;;8.30;99.90;;;;;;5084926;28;20116;-90
2022/02/09 08:42:14;;;;;;;24.10;19.95;;;8.30;99.90;;;;;;5078823;28;20036;-91
2022/02/09 08:44:40;;;;;;;22.05;18.30;;;8.30;99.90;;;;;;5065717;28;20095;-90
2022/02/09 08:47:06;;;;;;;26.75;20.35;;;8.30;99.90;;;;;;5088920;28;20043;-90
2022/02/09 08:49:32;;;;;;;22.90;19.67;;;8.30;99.90;;;;;;5080394;28;20474;-91
2022/02/09 08:51:59;;;;;;;26.35;20.95;;;8.30;99.90;;;;;;5084076;28;20016;-91
2022/02/09 08:54:26;;;;;;;23.42;19.38;;;8.30;99.90;;;;;;5095127;28;20031;-91
2022/02/09 08:56:53;;;;;;;25.35;20.30;;;8.30;99.90;;;;;;5095803;28;20466;-92
2022/02/09 08:59:25;;;;;;;24.52;20.52;;;8.30;99.90;;;;;;5095721;28;20028;-92
2022/02/09 09:01:57;;;;;;;24.17;19.83;;;8.40;99.90;;;;;;5077274;28;20466;-92
2022/02/09 09:04:27;;;;;;;30.75;22.02;;;8.40;99.90;;;;;;5088918;28;20020;-90
2022/02/09 09:06:56;;;;;;;27.27;21.88;;;8.40;99.90;;;;;;5094562;28;20055;-91
2022/02/09 09:09:28;;;;;;;27.60;21.15;;;8.40;99.90;;;;;;5094703;28;20024;-91
2022/02/09 09:15:18;;;;;;;28.02;21.55;;;8.50;99.90;;;;;;5077631;28;20071;-92
2022/02/09 10:34:16;;;;;;;21.08;17.27;;;9.10;99.90;;;;;;5093757;28;20044;-92
2022/02/09 10:37:02;;;;;;;24.90;18.83;;;9.10;99.90;;;;;;5088047;28;20016;-91
2022/02/09 10:40:10;;;;;;;22.70;19.08;;;9.10;99.90;;;;;;5080886;28;20480;-90
2022/02/09 10:42:46;;;;;;;22.85;18.10;;;9.20;99.90;;;;;;5084445;28;20043;-91
2022/02/09 10:45:32;;;;;;;20.77;17.67;;;9.20;99.90;;;;;;5083878;28;20089;-91
2022/02/09 10:47:59;;;;;;;22.25;17.60;;;9.30;99.90;;;;;;5091804;28;20024;-92
2022/02/09 10:52:54;;;;;;;23.73;18.85;;;9.40;99.90;;;;;;5078494;28;20052;-92
2022/02/09 10:55:38;;;;;;;22.27;18.98;;;9.40;99.90;;;;;;5077719;28;20016;-92
2022/02/09 10:58:04;;;;;;;23.30;18.70;;;9.50;99.90;;;;;;5091324;28;20028;-91
2022/02/09 11:00:30;;;;;;;22.55;19.10;;;9.50;99.90;;;;;;5089671;28;20114;-91
2022/02/09 11:02:56;;;;;;;22.83;19.45;;;9.50;99.90;;;;;;5096882;28;20027;-91
2022/02/09 11:05:22;;;;;;;21.80;18.13;;;9.50;99.90;;;;;;5096791;28;20027;-91
2022/02/09 11:07:49;;;;;;;19.95;17.45;;;9.50;99.90;;;;;;5096617;28;20024;-92
2022/02/09 11:10:16;;;;;;;20.65;17.27;;;9.50;99.90;;;;;;5095336;28;20020;-91
2022/02/09 11:12:45;;;;;;;20.95;18.13;;;9.60;99.90;;;;;;5087536;28;20028;-92
2022/02/09 11:15:14;;;;;;;21.23;17.35;;;9.60;99.90;;;;;;5097191;28;20031;-91
2022/02/09 11:17:46;;;;;;;20.40;16.80;;;9.60;99.90;;;;;;5098377;28;20093;-93
2022/02/09 11:20:21;;;;;;;22.10;18.13;;;9.60;99.90;;;;;;5079283;28;20072;-93
2022/02/09 11:22:47;;;;;;;20.30;16.60;;;9.70;99.90;;;;;;5093486;28;20024;-92
2022/02/09 11:25:27;;;;;;;19.67;16.35;;;9.70;99.90;;;;;;5094895;28;20031;-92
2022/02/09 11:28:36;;;;;;;18.63;15.90;;;9.70;99.90;;;;;;5089503;28;20116;-90
2022/02/09 11:31:18;;;;;;;18.88;15.75;;;9.80;99.90;;;;;;5077504;28;20533;-91
2022/02/09 11:34:01;;;;;;;18.85;15.65;;;9.70;99.90;;;;;;5085097;28;20044;-90
2022/02/09 11:36:41;;;;;;;21.45;16.42;;;9.80;99.90;;;;;;5095233;28;20074;-91
2022/02/09 11:39:16;;;;;;;18.95;15.80;;;9.80;99.90;;;;;;5095386;28;20030;-92
2022/02/09 11:41:57;;;;;;;18.30;15.75;;;9.80;99.90;;;;;;5095513;28;20089;-93
2022/02/09 11:45:11;;;;;;;17.73;15.00;;;9.80;99.90;;;;;;5095018;28;20024;-93
2022/02/09 11:50:51;;;;;;;16.30;13.70;;;9.90;99.90;;;;;;5077041;28;20032;-91
2022/02/09 11:59:48;;;;;;;15.50;13.10;;;9.80;99.90;;;;;;5076478;28;20035;-91
2022/02/09 12:10:20;;;;;;;15.70;13.10;;;9.70;99.90;;;;;;5087097;28;20058;-92
2022/02/09 12:12:59;;;;;;;16.95;15.07;;;9.70;99.90;;;;;;5075233;28;20025;-91
2022/02/09 12:16:10;;;;;;;18.70;14.82;;;9.70;99.90;;;;;;5075048;28;20025;-92
2022/02/09 12:18:39;;;;;;;14.77;13.13;;;9.80;99.90;;;;;;5076489;28;20056;-91
2022/02/09 12:21:16;;;;;;;17.45;15.27;;;9.80;99.90;;;;;;5083185;28;20028;-91
2022/02/09 12:23:45;;;;;;;21.70;14.23;;;9.80;99.90;;;;;;5095805;28;20031;-91
2022/02/09 12:26:12;;;;;;;19.10;14.68;;;9.80;99.90;;;;;;5095485;28;20024;-91
2022/02/09 12:28:40;;;;;;;16.92;14.43;;;9.90;99.90;;;;;;5095338;28;20103;-92
2022/02/09 12:31:15;;;;;;;17.85;15.23;;;9.90;99.90;;;;;;5084287;28;20119;-90
2022/02/09 12:33:43;;;;;;;16.92;13.98;;;9.90;99.90;;;;;;5080636;28;20459;-91
2022/02/09 12:36:19;;;;;;;15.98;13.40;;;9.90;99.90;;;;;;5095272;28;20051;-91
2022/02/09 12:38:46;;;;;;;17.52;14.30;;;9.90;99.90;;;;;;5086960;28;20109;-90
2022/02/09 12:41:21;;;;;;;17.13;13.90;;;9.80;99.90;;;;;;5074675;28;20046;-92
2022/02/09 12:43:50;;;;;;;18.80;14.77;;;9.80;99.90;;;;;;5074571;28;20032;-91
2022/02/09 12:46:19;;;;;;;17.25;13.70;;;9.80;99.90;;;;;;5074302;28;20157;-92
2022/02/09 12:48:45;;;;;;;16.02;13.38;;;9.90;99.90;;;;;;5075043;28;20032;-90
2022/02/09 12:51:29;;;;;;;16.38;14.63;;;10.00;99.90;;;;;;5074780;28;20350;-91
2022/02/09 12:53:57;;;;;;;17.83;13.75;;;10.00;99.90;;;;;;5084640;28;20028;-90
2022/02/09 12:56:36;;;;;;;16.30;13.88;;;10.00;99.90;;;;;;5075245;28;20032;-91
2022/02/09 12:59:09;;;;;;;18.00;14.07;;;10.10;99.90;;;;;;5075174;28;20024;-91
2022/02/09 13:01:49;;;;;;;17.50;14.55;;;10.10;99.90;;;;;;5075112;28;20016;-90
2022/02/09 13:04:37;;;;;;;16.05;14.15;;;10.20;99.90;;;;;;5084307;28;20063;-90
2022/02/09 13:07:12;;;;;;;15.68;13.23;;;10.30;99.90;;;;;;5095047;28;20024;-91
2022/02/09 13:09:39;;;;;;;16.92;14.45;;;10.40;99.90;;;;;;5094763;28;20465;-91
2022/02/09 13:12:06;;;;;;;15.25;12.98;;;10.50;99.90;;;;;;5075452;28;20016;-91
2022/02/09 13:14:39;;;;;;;16.50;13.50;;;10.50;99.90;;;;;;5074901;28;20024;-90
2022/02/09 13:17:15;;;;;;;;;;;10.50;99.90;;;;;;5074806;28;20069;-91
2022/02/09 13:23:38;;;;;;;16.92;14.15;;;10.50;99.90;;;;;;5052643;28;20052;-90
2022/02/09 14:16:33;;;;;;;18.67;15.73;;;9.80;99.90;;;;;;5077176;28;20085;-93
2022/02/09 14:56:49;;;;;;;19.85;17.05;;;9.90;99.90;;;;;;5083888;28;20081;-90
2022/02/09 14:59:22;;;;;;;18.02;15.85;;;9.90;99.90;;;;;;5094531;28;20039;-89
2022/02/09 15:01:57;;;;;;;19.38;16.20;;;9.90;99.90;;;;;;5090998;28;20028;-90
2022/02/09 15:04:33;;;;;;;20.77;17.52;;;9.90;99.90;;;;;;5087436;28;20028;-90
2022/02/09 15:12:20;;;;;;;20.63;16.48;;;10.00;99.90;;;;;;5101217;28;20032;-90
2022/02/09 15:22:34;;;;;;;20.92;15.20;;;10.00;99.90;;;;;;5076088;28;20043;-91
2022/02/09 15:24:59;;;;;;;;;;;10.00;99.90;;;;;;5076860;28;20024;-91
2022/02/09 15:27:26;;;;;;;18.05;14.80;;;9.90;99.90;;;;;;5076825;28;19905;-92
2022/02/09 15:29:53;;;;;;;17.23;14.75;;;10.00;99.90;;;;;;5076783;28;20020;-90
2022/02/09 15:32:36;;;;;;;18.45;15.15;;;10.00;99.90;;;;;;5076401;28;20102;-91
2022/02/09 15:35:11;;;;;;;17.30;14.10;;;10.00;99.90;;;;;;5081844;28;20036;-90
2022/02/09 15:37:50;;;;;;;16.70;13.85;;;10.00;99.90;;;;;;5075929;28;20119;-91
2022/02/09 15:40:41;;;;;;;15.85;14.10;;;10.00;99.90;;;;;;5085943;28;20057;-93
2022/02/09 15:56:56;;;;;;;15.98;11.85;;;10.00;99.90;;;;;;5080202;28;20105;-91
2022/02/09 16:22:55;;;;;;;18.98;14.23;;;9.50;99.90;;;;;;5093173;28;20085;-89
2022/02/09 16:25:37;;;;;;;19.85;15.73;;;9.40;99.90;;;;;;5090841;28;20085;-88
2022/02/09 16:34:04;;;;;;;18.02;13.80;;;9.40;99.90;;;;;;5069235;28;20668;-91
2022/02/09 16:47:01;;;;;;;19.20;14.85;;;9.30;99.90;;;;;;5090511;28;20093;-90
2022/02/09 16:49:50;;;;;;;19.90;15.45;;;9.30;99.90;;;;;;5075676;28;20390;-89
2022/02/09 16:52:22;;;;;;;17.55;15.15;;;9.20;99.90;;;;;;5093408;28;20031;-89
2022/02/09 17:19:24;;;;;;;23.20;18.13;;;8.90;99.90;;;;;;5095239;28;20447;-95
2022/02/09 17:21:49;;;;;;;27.70;20.52;;;9.00;99.90;;;;;;5157626;22;20073;-93
2022/02/09 17:24:15;;;;;;;24.88;20.60;;;9.00;99.90;;;;;;5032525;28;20037;-91
2022/02/09 17:26:41;;;;;;;30.83;21.73;;;8.90;99.90;;;;;;5031714;28;20030;-91
2022/02/09 17:29:07;;;;;;;29.23;21.17;;;8.90;99.90;;;;;;5049045;28;20018;-92
2022/02/09 17:53:27;;;;;;;25.58;18.77;;;9.00;99.90;;;;;;5059709;28;20044;-90
2022/02/09 17:56:01;;;;;;;25.92;19.92;;;9.00;99.90;;;;;;5063326;28;20021;-93
2022/02/09 17:58:32;;;;;;;21.95;17.65;;;9.00;99.90;;;;;;5061836;28;20045;-93
2022/02/09 18:00:59;;;;;;;21.83;17.65;;;9.00;99.90;;;;;;5048594;28;20056;-90
2022/02/09 18:03:27;;;;;;;21.45;16.42;;;9.00;99.90;;;;;;5041027;28;20025;-92
2022/02/09 18:05:56;;;;;;;22.95;17.70;;;9.10;99.90;;;;;;5041166;28;20049;-91
2022/02/09 18:08:39;;;;;;;21.92;18.05;;;9.10;99.90;;;;;;5070908;28;20005;-92
2022/02/09 18:33:35;;;;;;;27.20;20.77;;;9.10;99.90;;;;;;5056911;28;20057;-90
2022/02/09 18:42:46;;;;;;;28.88;20.23;;;9.10;99.90;;;;;;5046447;28;20044;-93
2022/02/09 18:44:21;;;;;;;26.92;20.20;;;9.10;99.90;;;;;;5051150;28;20029;-91
2022/02/09 19:00:17;;;;;;;24.58;19.50;;;9.20;99.90;;;;;;5018711;28;20040;-90
2022/02/09 19:02:58;;;;;;;27.85;20.13;;;9.20;99.90;;;;;;5038175;28;20021;-90
2022/02/09 19:05:34;;;;;;;30.63;21.65;;;9.20;99.90;;;;;;5038620;28;20044;-90
2022/02/09 19:26:39;;;;;;;27.00;18.05;;;9.20;99.90;;;;;;5037201;28;20071;-92
2022/02/09 19:31:56;;;;;;;28.65;19.85;;;9.20;99.90;;;;;;5035580;28;20120;-91
2022/02/09 19:55:51;;;;;;;29.23;20.63;;;9.10;99.90;;;;;;5040080;28;20033;-91
2022/02/09 19:58:22;;;;;;;32.35;21.25;;;9.10;99.90;;;;;;5040681;28;20029;-92
2022/02/09 20:00:48;;;;;;;31.77;21.67;;;9.10;99.90;;;;;;5037132;28;20017;-92
2022/02/09 20:03:14;;;;;;;31.33;20.33;;;9.00;99.90;;;;;;5036035;28;20034;-90
2022/02/09 20:05:40;;;;;;;35.13;22.52;;;9.00;99.90;;;;;;5015760;28;20018;-92
2022/02/09 20:08:07;;;;;;;34.78;20.10;;;8.90;99.90;;;;;;5020102;28;20029;-90
2022/02/09 20:10:33;;;;;;;29.63;19.83;;;8.90;99.90;;;;;;5033061;28;20033;-89
2022/02/09 20:12:59;;;;;;;30.88;19.52;;;9.00;99.90;;;;;;5039284;28;20025;-92
2022/02/09 20:15:25;;;;;;;27.80;19.23;;;9.00;99.90;;;;;;5060450;28;20131;-93
2022/02/09 20:17:52;;;;;;;25.33;17.00;;;9.00;99.90;;;;;;5021756;28;20030;-92
2022/02/09 20:20:27;;;;;;;26.42;18.00;;;9.00;99.90;;;;;;5049627;28;20514;-90
2022/02/09 20:22:55;;;;;;;23.75;16.55;;;9.00;99.90;;;;;;5032305;28;20049;-91
2022/02/09 20:25:23;;;;;;;26.58;17.98;;;9.00;99.90;;;;;;5032635;28;20112;-92
2022/02/09 20:27:52;;;;;;;31.20;18.20;;;9.10;99.90;;;;;;5056542;28;20117;-91
2022/02/09 20:30:25;;;;;;;26.23;16.38;;;9.00;99.90;;;;;;5034093;28;20391;-92
2022/02/09 20:32:58;;;;;;;21.33;15.27;;;9.10;99.90;;;;;;5034601;28;20130;-91
2022/02/09 20:35:24;;;;;;;25.23;16.20;;;9.10;99.90;;;;;;5039874;28;20091;-92
2022/02/09 20:37:53;;;;;;;23.98;15.00;;;9.10;99.90;;;;;;5039678;28;20017;-93
2022/02/09 20:40:45;;;;;;;22.27;14.82;;;9.10;99.90;;;;;;5058133;28;20159;-89
2022/02/09 20:43:13;;;;;;;22.55;13.88;;;9.10;99.90;;;;;;5059551;28;20029;-92
2022/02/09 20:45:46;;;;;;;21.10;13.70;;;9.10;99.90;;;;;;5041816;28;20101;-89
2022/02/09 20:48:15;;;;;;;19.33;12.70;;;9.10;99.90;;;;;;5033805;28;20041;-88
2022/02/09 20:50:42;;;;;;;16.95;11.32;;;9.10;99.90;;;;;;5032533;28;20130;-89
2022/02/09 20:53:09;;;;;;;16.48;10.88;;;9.10;99.90;;;;;;5033645;28;20036;-89
2022/02/09 20:55:34;;;;;;;15.50;11.60;;;9.10;99.90;;;;;;5052266;28;20477;-90
2022/02/09 20:58:01;;;;;;;19.95;13.50;;;9.10;99.90;;;;;;5052953;28;20070;-87
2022/02/09 22:21:20;;;;;;;37.72;24.98;;;8.90;99.90;;;;;;5032956;28;20130;-91
2022/02/09 22:28:46;;;;;;;39.75;25.35;;;8.90;99.90;;;;;;5038270;28;20059;-92
2022/02/09 22:47:53;;;;;;;37.65;24.42;;;8.90;99.90;;;;;;5033664;28;20049;-92
2022/02/09 22:54:59;;;;;;;43.92;26.58;;;9.00;99.90;;;;;;5044795;28;20487;-91
2022/02/09 22:57:40;;;;;;;45.35;28.15;;;9.00;99.90;;;;;;5035937;28;20025;-92
2022/02/09 23:00:15;;;;;;;42.53;28.25;;;8.90;99.90;;;;;;5036119;28;20590;-94
2022/02/09 23:02:48;;;;;;;39.35;25.77;;;8.90;99.90;;;;;;5036478;28;20045;-94
2022/02/09 23:08:32;;;;;;;39.05;25.80;;;9.00;99.90;;;;;;5036462;28;20087;-92
2022/02/09 23:27:10;;;;;;;36.85;23.48;;;9.00;99.90;;;;;;5036152;28;20059;-93
2022/02/09 23:57:16;;;;;;;42.13;28.42;;;8.90;99.90;;;;;;5033348;28;20029;-91
